Kaldármelar Airport

Jump to: basic info | weather | comments

Related pages: nearby airports | nearby navaids | notams | map

Basic information (top)

Codes: BIKA
Location: lon 64.778900, lat -22.256901, elev 160 ft / 49 m msl
Status: small_airport

Weather (top)

Current conditions for Reykjavik Airport 40nm (74km) SSE (rec'd 2014/08/01 22:00Z):

BIRK 012200Z 36004KT 9999 FEW038 SCT052 BKN088 11/05 Q1015

Airport forecast for Reykjavik Airport 40nm (74km) SSE (rec'd 2014/08/01 21:38Z):

TAF BIRK 011937Z 0121/0221 33010KT 9999 FEW035 TX13/0215Z TN07/0205Z 
      BECMG 0202/0205 09008KT BKN035 
      TEMPO 0211/0221 SHRA BKN022CB 
      BECMG 0212/0214 33007KT 
      BECMG 0219/0221 14008KT

Latest comments (top)

No comments yet for Kaldármelar Airport

More... (top)

See also NOTAMs and nearby airports and navaids, or visit the Kaldármelar Airport page at the main OurAirports website..